Time,TemperatureF,DewpointF,PressureIn,WindDirection,WindDirectionDegrees,WindSpeedMPH,WindSpeedGustMPH,Humidity,HourlyPrecipIn,Conditions,Clouds,dailyrainin,SolarRadiationWatts/m^2,SoftwareType,DateUTC
2013-07-28 00:00:00,56.3,48.5,29.98,NW,315,0.0,0.0,75,0.00,,FEW070,0.00,0.00,VWS V14.01,2013-07-28 05:00:00,
2013-07-28 00:06:00,56.2,48.4,29.98,NW,315,1.0,3.0,75,0.00,,FEW070,0.00,0.00,VWS V14.01,2013-07-28 05:06:00,
2013-07-28 00:12:00,56.2,48.4,29.98,NW,315,0.0,1.0,75,0.00,,FEW070,0.00,0.00,VWS V14.01,2013-07-28 05:12:00,
2013-07-28 00:18:00,56.2,48.4,29.98,NW,315,0.0,0.0,75,0.00,,FEW070,0.00,0.00,VWS V14.01,2013-07-28 05:18:00,
2013-07-28 00:23:00,56.0,48.2,29.98,NW,315,1.0,1.0,75,0.00,,FEW070,0.00,0.00,VWS V14.01,2013-07-28 05:23:00,
2013-07-28 00:29:00,55.7,48.3,29.98,NW,315,1.0,1.0,76,0.00,,FEW070,0.00,0.00,VWS V14.01,2013-07-28 05:29:00,
2013-07-28 00:34:00,55.6,48.5,29.98,NW,315,0.0,1.0,77,0.00,,FEW070,0.00,0.00,VWS V14.01,2013-07-28 05:34:00,
2013-07-28 00:39:00,55.4,48.3,29.98,SW,236,2.0,3.0,77,0.00,,FEW070,0.00,0.00,VWS V14.01,2013-07-28 05:39:00,
2013-07-28 00:44:00,55.3,48.2,29.98,SW,236,0.0,2.0,77,0.00,,FEW070,0.00,0.00,VWS V14.01,2013-07-28 05:44:00,
2013-07-28 00:49:00,55.3,48.2,29.98,SW,235,0.0,3.0,77,0.00,,FEW070,0.00,0.00,VWS V14.01,2013-07-28 05:49:00,
2013-07-28 00:54:00,55.1,48.4,29.98,SW,235,1.0,2.0,78,0.00,,FEW070,0.00,0.00,VWS V14.01,2013-07-28 05:54:00,
2013-07-28 00:59:00,55.0,48.3,29.98,SW,235,0.0,0.0,78,0.00,,FEW070,0.00,0.00,VWS V14.01,2013-07-28 05:59:00,
2013-07-28 01:04:00,55.0,48.3,29.98,SW,235,0.0,0.0,78,0.00,,BKN070,0.00,0.00,VWS V14.01,2013-07-28 06:04:00,
2013-07-28 01:10:00,54.8,48.4,29.98,SW,235,0.0,0.0,79,0.00,,BKN070,0.00,0.00,VWS V14.01,2013-07-28 06:10:00,
2013-07-28 01:15:00,54.8,48.4,29.98,SW,235,0.0,0.0,79,0.00,,BKN070,0.00,0.00,VWS V14.01,2013-07-28 06:15:00,
2013-07-28 01:21:00,54.8,48.4,29.98,SW,235,0.0,0.0,79,0.00,,BKN070,0.00,0.00,VWS V14.01,2013-07-28 06:21:00,
2013-07-28 01:26:00,55.0,48.6,29.97,SW,235,0.0,0.0,79,0.00,,BKN070,0.00,0.00,VWS V14.01,2013-07-28 06:26:00,
2013-07-28 01:31:00,55.0,48.6,29.97,SW,235,0.0,0.0,79,0.00,,BKN070,0.00,0.00,VWS V14.01,2013-07-28 06:31:00,
2013-07-28 01:37:00,55.1,48.7,29.97,SW,235,0.0,0.0,79,0.00,,BKN070,0.00,0.00,VWS V14.01,2013-07-28 06:37:00,
2013-07-28 01:42:00,55.1,48.7,29.97,SW,235,0.0,0.0,79,0.00,,BKN070,0.00,0.00,VWS V14.01,2013-07-28 06:42:00,
2013-07-28 01:47:00,55.1,48.7,29.97,SW,235,0.0,2.0,79,0.00,,BKN070,0.00,0.00,VWS V14.01,2013-07-28 06:47:00,
2013-07-28 01:52:00,55.1,48.7,29.97,SW,235,0.0,2.0,79,0.00,,BKN070,0.00,0.00,VWS V14.01,2013-07-28 06:52:00,
2013-07-28 01:57:00,55.0,48.6,29.97,SW,235,0.0,2.0,79,0.00,,BKN070,0.00,0.00,VWS V14.01,2013-07-28 06:57:00,
2013-07-28 02:02:00,54.7,48.7,29.97,SW,235,0.0,1.0,80,0.00,,SCT050,0.00,0.00,VWS V14.01,2013-07-28 07:02:00,
2013-07-28 02:07:00,54.5,48.5,29.97,SW,235,0.0,1.0,80,0.00,,SCT050,0.00,0.00,VWS V14.01,2013-07-28 07:07:00,
2013-07-28 02:12:00,54.4,48.4,29.97,SW,235,0.0,0.0,80,0.00,,SCT050,0.00,0.00,VWS V14.01,2013-07-28 07:12:00,
2013-07-28 02:18:00,54.1,48.4,29.97,SW,235,0.0,1.0,81,0.00,,SCT050,0.00,0.00,VWS V14.01,2013-07-28 07:18:00,
2013-07-28 02:23:00,53.9,48.2,29.96,SW,235,0.0,0.0,81,0.00,,SCT050,0.00,0.00,VWS V14.01,2013-07-28 07:23:00,
2013-07-28 02:28:00,53.8,48.1,29.96,SW,235,1.0,3.0,81,0.00,,SCT050,0.00,0.00,VWS V14.01,2013-07-28 07:28:00,
2013-07-28 02:33:00,53.6,48.2,29.96,SW,235,0.0,1.0,82,0.00,,SCT050,0.00,0.00,VWS V14.01,2013-07-28 07:33:00,
2013-07-28 02:39:00,53.3,48.0,29.96,SW,235,0.0,0.0,82,0.00,,SCT050,0.00,0.00,VWS V14.01,2013-07-28 07:39:00,
2013-07-28 02:45:00,53.2,47.9,29.96,SW,235,0.0,0.0,82,0.00,,SCT050,0.00,0.00,VWS V14.01,2013-07-28 07:45:00,
2013-07-28 02:50:00,53.1,48.1,29.96,SW,235,1.0,1.0,83,0.00,,SCT050,0.00,0.00,VWS V14.01,2013-07-28 07:50:00,
2013-07-28 02:56:00,52.9,47.9,29.96,SW,235,1.0,1.0,83,0.00,,SCT050,0.00,0.00,VWS V14.01,2013-07-28 07:56:00,
2013-07-28 03:02:00,52.9,47.9,29.96,SW,235,0.0,1.0,83,0.00,,BKN,0.00,0.00,VWS V14.01,2013-07-28 08:02:00,
2013-07-28 03:07:00,52.8,48.1,29.96,SW,235,0.0,3.0,84,0.00,,BKN,0.00,0.00,VWS V14.01,2013-07-28 08:07:00,
2013-07-28 03:12:00,52.8,48.1,29.96,SW,235,0.0,2.0,84,0.00,,BKN,0.00,0.00,VWS V14.01,2013-07-28 08:12:00,
2013-07-28 03:17:00,52.8,48.1,29.96,SW,235,0.0,0.0,84,0.00,,BKN,0.00,0.00,VWS V14.01,2013-07-28 08:17:00,
2013-07-28 03:22:00,52.5,47.8,29.96,SW,235,0.0,0.0,84,0.00,,BKN,0.00,0.00,VWS V14.01,2013-07-28 08:22:00,
2013-07-28 03:27:00,52.3,47.6,29.96,SW,235,0.0,1.0,84,0.00,,BKN,0.00,0.00,VWS V14.01,2013-07-28 08:27:00,
2013-07-28 03:32:00,52.3,47.6,29.96,SW,235,0.0,1.0,84,0.00,,BKN,0.00,0.00,VWS V14.01,2013-07-28 08:32:00,
2013-07-28 03:38:00,52.2,47.5,29.96,SW,235,0.0,3.0,84,0.00,,BKN,0.00,0.00,VWS V14.01,2013-07-28 08:38:00,
2013-07-28 03:43:00,52.3,47.6,29.96,SW,235,0.0,0.0,84,0.00,,BKN,0.00,0.00,VWS V14.01,2013-07-28 08:43:00,
2013-07-28 03:48:00,52.2,47.5,29.96,SW,235,0.0,1.0,84,0.00,,BKN,0.00,0.00,VWS V14.01,2013-07-28 08:48:00,
2013-07-28 03:53:00,52.0,47.3,29.96,SW,235,0.0,0.0,84,0.00,,BKN,0.00,0.00,VWS V14.01,2013-07-28 08:53:00,
2013-07-28 03:58:00,52.0,47.3,29.96,SW,235,0.0,0.0,84,0.00,,BKN,0.00,0.00,VWS V14.01,2013-07-28 08:58:00,
2013-07-28 04:03:00,51.9,47.2,29.96,SW,235,0.0,0.0,84,0.00,,CLR,0.00,0.00,VWS V14.01,2013-07-28 09:03:00,
2013-07-28 04:08:00,51.9,47.5,29.96,SW,235,0.0,0.0,85,0.00,,CLR,0.00,0.00,VWS V14.01,2013-07-28 09:08:00,
2013-07-28 04:13:00,51.7,47.3,29.96,SW,235,0.0,0.0,85,0.00,,CLR,0.00,0.00,VWS V14.01,2013-07-28 09:13:00,
2013-07-28 04:19:00,51.7,47.7,29.96,SW,235,0.0,0.0,86,0.00,,CLR,0.00,0.00,VWS V14.01,2013-07-28 09:19:00,
2013-07-28 04:24:00,51.6,47.6,29.96,SW,235,0.0,3.0,86,0.00,,CLR,0.00,0.00,VWS V14.01,2013-07-28 09:24:00,
2013-07-28 04:29:00,51.6,47.6,29.96,SW,235,0.0,2.0,86,0.00,,CLR,0.00,0.00,VWS V14.01,2013-07-28 09:29:00,
2013-07-28 04:34:00,51.4,47.4,29.97,SW,235,0.0,3.0,86,0.00,,CLR,0.00,0.00,VWS V14.01,2013-07-28 09:34:00,
2013-07-28 04:39:00,51.4,47.4,29.97,SW,235,0.0,2.0,86,0.00,,CLR,0.00,0.00,VWS V14.01,2013-07-28 09:39:00,
2013-07-28 04:44:00,51.3,47.3,29.97,SW,235,0.0,0.0,86,0.00,,CLR,0.00,0.00,VWS V14.01,2013-07-28 09:44:00,
2013-07-28 04:50:00,51.3,47.3,29.97,SW,235,0.0,1.0,86,0.00,,CLR,0.00,0.00,VWS V14.01,2013-07-28 09:50:00,
2013-07-28 04:55:00,51.1,47.1,29.97,SW,235,0.0,2.0,86,0.00,,CLR,0.00,0.00,VWS V14.01,2013-07-28 09:55:00,
2013-07-28 05:01:00,51.1,47.1,29.97,SW,235,0.0,2.0,86,0.00,,CLR,0.00,0.00,VWS V14.01,2013-07-28 10:01:00,
2013-07-28 05:06:00,51.1,47.1,29.98,SW,235,0.0,0.0,86,0.00,,CLR,0.00,0.00,VWS V14.01,2013-07-28 10:06:00,
2013-07-28 05:11:00,51.3,47.3,29.98,SW,235,0.0,1.0,86,0.00,,CLR,0.00,0.00,VWS V14.01,2013-07-28 10:11:00,
2013-07-28 05:16:00,51.4,47.0,29.98,South,173,0.0,1.0,85,0.00,,CLR,0.00,0.00,VWS V14.01,2013-07-28 10:16:00,
2013-07-28 05:21:00,51.7,47.3,29.98,SSW,213,1.0,2.0,85,0.00,,CLR,0.00,0.00,VWS V14.01,2013-07-28 10:21:00,
2013-07-28 05:26:00,51.9,47.2,29.98,SSW,213,1.0,5.0,84,0.00,,CLR,0.00,0.00,VWS V14.01,2013-07-28 10:26:00,
2013-07-28 05:32:00,52.0,47.3,29.98,SSW,213,0.0,1.0,84,0.00,,CLR,0.00,0.00,VWS V14.01,2013-07-28 10:32:00,
2013-07-28 05:37:00,52.0,47.0,29.98,SSW,213,1.0,4.0,83,0.00,,CLR,0.00,0.00,VWS V14.01,2013-07-28 10:37:00,
2013-07-28 05:42:00,52.2,47.2,29.98,SW,229,1.0,6.0,83,0.00,,CLR,0.00,0.00,VWS V14.01,2013-07-28 10:42:00,
2013-07-28 05:47:00,52.2,47.2,29.98,SW,229,2.0,5.0,83,0.00,,CLR,0.00,0.00,VWS V14.01,2013-07-28 10:47:00,
2013-07-28 05:52:00,52.2,46.9,29.98,SW,229,0.0,5.0,82,0.00,,CLR,0.00,0.00,VWS V14.01,2013-07-28 10:52:00,
2013-07-28 05:57:00,52.2,46.9,29.98,SW,227,0.0,1.0,82,0.00,,CLR,0.00,5.00,VWS V14.01,2013-07-28 10:57:00,
2013-07-28 06:02:00,52.2,46.9,29.98,SW,227,3.0,3.0,82,0.00,,FEW070,0.00,7.00,VWS V14.01,2013-07-28 11:02:00,
2013-07-28 06:07:00,52.2,46.9,29.98,SW,227,0.0,0.0,82,0.00,,FEW070,0.00,9.00,VWS V14.01,2013-07-28 11:07:00,
2013-07-28 06:12:00,52.0,46.7,29.98,SW,227,0.0,1.0,82,0.00,,FEW070,0.00,11.00,VWS V14.01,2013-07-28 11:12:00,
2013-07-28 06:17:00,52.0,46.7,29.98,SW,227,0.0,1.0,82,0.00,,FEW070,0.00,12.00,VWS V14.01,2013-07-28 11:17:00,
2013-07-28 06:22:00,51.9,46.6,29.98,SW,226,0.0,3.0,82,0.00,,FEW070,0.00,16.00,VWS V14.01,2013-07-28 11:22:00,
2013-07-28 06:27:00,51.9,46.9,29.98,SW,226,1.0,4.0,83,0.00,,FEW070,0.00,40.00,VWS V14.01,2013-07-28 11:27:00,
2013-07-28 06:32:00,52.0,47.0,29.98,SW,225,0.0,3.0,83,0.00,,FEW070,0.00,18.00,VWS V14.01,2013-07-28 11:32:00,
2013-07-28 06:37:00,52.2,47.2,29.98,SW,225,0.0,2.0,83,0.00,,FEW070,0.00,76.00,VWS V14.01,2013-07-28 11:37:00,
2013-07-28 06:42:00,52.5,47.5,29.98,SSE,165,0.0,8.0,83,0.00,,FEW070,0.00,97.00,VWS V14.01,2013-07-28 11:42:00,
2013-07-28 06:47:00,52.9,47.6,29.98,SW,223,2.0,6.0,82,0.00,,FEW070,0.00,113.00,VWS V14.01,2013-07-28 11:47:00,
2013-07-28 06:52:00,53.3,47.6,29.98,South,186,1.0,7.0,81,0.00,,FEW070,0.00,128.00,VWS V14.01,2013-07-28 11:52:00,
2013-07-28 06:57:00,53.6,47.6,29.98,SSW,212,0.0,2.0,80,0.00,,FEW070,0.00,141.00,VWS V14.01,2013-07-28 11:57:00,
2013-07-28 07:02:00,53.9,47.5,29.98,SSW,207,4.0,4.0,79,0.00,,FEW070,0.00,156.00,VWS V14.01,2013-07-28 12:02:00,
2013-07-28 07:07:00,54.4,47.7,29.98,SSW,209,0.0,5.0,78,0.00,,FEW070,0.00,171.00,VWS V14.01,2013-07-28 12:07:00,
2013-07-28 07:12:00,54.7,47.6,29.99,SSW,202,2.0,4.0,77,0.00,,FEW070,0.00,185.00,VWS V14.01,2013-07-28 12:12:00,
2013-07-28 07:17:00,54.8,47.4,29.99,SSW,213,2.0,7.0,76,0.00,,FEW070,0.00,200.00,VWS V14.01,2013-07-28 12:17:00,
2013-07-28 07:22:00,55.1,47.3,29.99,SW,225,8.0,8.0,75,0.00,,FEW070,0.00,216.00,VWS V14.01,2013-07-28 12:22:00,
2013-07-28 07:27:00,55.3,47.5,29.99,SSE,166,5.0,5.0,75,0.00,,FEW070,0.00,234.00,VWS V14.01,2013-07-28 12:27:00,
2013-07-28 07:32:00,55.6,47.5,29.99,SSW,204,2.0,8.0,74,0.00,,FEW070,0.00,248.00,VWS V14.01,2013-07-28 12:32:00,
2013-07-28 07:37:00,56.0,47.5,29.99,WSW,254,1.0,7.0,73,0.00,,FEW070,0.00,265.00,VWS V14.01,2013-07-28 12:37:00,
2013-07-28 07:42:00,56.5,47.6,29.99,SE,141,8.0,13.0,72,0.00,,FEW070,0.00,287.00,VWS V14.01,2013-07-28 12:42:00,
2013-07-28 07:47:00,56.9,47.6,29.99,SW,220,2.0,7.0,71,0.00,,FEW070,0.00,302.00,VWS V14.01,2013-07-28 12:47:00,
2013-07-28 07:52:00,57.2,47.9,29.99,SSW,209,3.0,7.0,71,0.00,,FEW070,0.00,322.00,VWS V14.01,2013-07-28 12:52:00,
2013-07-28 07:57:00,58.0,47.9,29.99,West,267,4.0,10.0,69,0.00,,FEW070,0.00,346.00,VWS V14.01,2013-07-28 12:57:00,
2013-07-28 08:02:00,58.6,48.1,29.99,WSW,248,4.0,6.0,68,0.00,,CLR,0.00,362.00,VWS V14.01,2013-07-28 13:02:00,
2013-07-28 08:07:00,59.0,47.7,29.99,SSW,205,3.0,5.0,66,0.00,,CLR,0.00,383.00,VWS V14.01,2013-07-28 13:07:00,
2013-07-28 08:12:00,59.5,48.2,30.00,WSW,242,2.0,7.0,66,0.00,,CLR,0.00,396.00,VWS V14.01,2013-07-28 13:12:00,
2013-07-28 08:17:00,59.8,48.4,30.00,SSW,211,9.0,9.0,66,0.00,,CLR,0.00,404.00,VWS V14.01,2013-07-28 13:17:00,
2013-07-28 08:22:00,60.1,48.7,30.00,West,273,7.0,10.0,66,0.00,,CLR,0.00,417.00,VWS V14.01,2013-07-28 13:22:00,
2013-07-28 08:27:00,60.2,49.2,30.00,WSW,242,3.0,8.0,67,0.00,,CLR,0.00,434.00,VWS V14.01,2013-07-28 13:27:00,
2013-07-28 08:32:00,60.2,48.8,30.00,West,268,7.0,9.0,66,0.00,,CLR,0.00,448.00,VWS V14.01,2013-07-28 13:32:00,
2013-07-28 08:38:00,60.4,49.4,30.00,SSW,211,7.0,7.0,67,0.00,,CLR,0.00,469.00,VWS V14.01,2013-07-28 13:38:00,
2013-07-28 08:43:00,60.9,49.5,30.00,SSE,168,5.0,6.0,66,0.00,,CLR,0.00,489.00,VWS V14.01,2013-07-28 13:43:00,
2013-07-28 08:48:00,61.2,49.3,30.00,WNW,286,5.0,10.0,65,0.00,,CLR,0.00,499.00,VWS V14.01,2013-07-28 13:48:00,
2013-07-28 08:53:00,61.5,49.6,30.01,WNW,282,6.0,9.0,65,0.00,,CLR,0.00,517.00,VWS V14.01,2013-07-28 13:53:00,
2013-07-28 08:58:00,61.3,49.9,30.00,NW,316,4.0,9.0,66,0.00,,CLR,0.00,527.00,VWS V14.01,2013-07-28 13:58:00,
2013-07-28 09:03:00,61.5,49.6,30.00,SSW,199,1.0,5.0,65,0.00,,CLR,0.00,543.00,VWS V14.01,2013-07-28 14:03:00,
2013-07-28 09:08:00,62.0,49.7,30.00,SSE,159,6.0,9.0,64,0.00,,CLR,0.00,561.00,VWS V14.01,2013-07-28 14:08:00,
2013-07-28 09:13:00,61.8,49.5,30.00,West,262,10.0,12.0,64,0.00,,CLR,0.00,577.00,VWS V14.01,2013-07-28 14:13:00,
2013-07-28 09:18:00,61.6,49.7,30.00,West,277,5.0,10.0,65,0.00,,CLR,0.00,592.00,VWS V14.01,2013-07-28 14:18:00,
2013-07-28 09:24:00,62.0,50.1,30.00,West,281,7.0,16.0,65,0.00,,CLR,0.00,612.00,VWS V14.01,2013-07-28 14:24:00,
2013-07-28 09:29:00,62.1,50.6,30.00,SSW,200,2.0,5.0,66,0.00,,CLR,0.00,626.00,VWS V14.01,2013-07-28 14:29:00,
2013-07-28 09:34:00,62.6,50.3,29.99,South,171,8.0,9.0,64,0.00,,CLR,0.00,638.00,VWS V14.01,2013-07-28 14:34:00,
2013-07-28 09:39:00,62.6,50.7,30.00,WSW,246,2.0,11.0,65,0.00,,CLR,0.00,656.00,VWS V14.01,2013-07-28 14:39:00,
2013-07-28 09:44:00,62.7,50.8,30.00,West,268,5.0,9.0,65,0.00,,CLR,0.00,664.00,VWS V14.01,2013-07-28 14:44:00,
2013-07-28 09:50:00,62.7,50.4,30.00,West,265,8.0,13.0,64,0.00,,CLR,0.00,684.00,VWS V14.01,2013-07-28 14:50:00,
2013-07-28 09:55:00,63.1,50.7,30.00,WNW,284,7.0,10.0,64,0.00,,CLR,0.00,698.00,VWS V14.01,2013-07-28 14:55:00,
2013-07-28 10:00:00,63.4,50.2,30.00,West,272,11.0,19.0,62,0.00,,CLR,0.00,714.00,VWS V14.01,2013-07-28 15:00:00,
2013-07-28 10:05:00,63.4,50.2,30.00,West,270,13.0,16.0,62,0.00,,CLR,0.00,726.00,VWS V14.01,2013-07-28 15:05:00,
2013-07-28 10:10:00,63.5,50.7,30.00,SW,231,3.0,10.0,63,0.00,,CLR,0.00,737.00,VWS V14.01,2013-07-28 15:10:00,
2013-07-28 10:15:00,63.9,50.6,30.00,WNW,292,6.0,10.0,62,0.00,,CLR,0.00,752.00,VWS V14.01,2013-07-28 15:15:00,
2013-07-28 10:20:00,63.9,50.6,30.00,SW,227,11.0,14.0,62,0.00,,CLR,0.00,758.00,VWS V14.01,2013-07-28 15:20:00,
2013-07-28 10:25:00,63.9,50.6,30.00,West,265,3.0,9.0,62,0.00,,CLR,0.00,765.00,VWS V14.01,2013-07-28 15:25:00,
2013-07-28 10:30:00,64.2,50.5,30.00,SSE,163,0.0,9.0,61,0.00,,CLR,0.00,772.00,VWS V14.01,2013-07-28 15:30:00,
2013-07-28 10:35:00,64.8,51.0,30.00,WSW,248,10.0,12.0,61,0.00,,CLR,0.00,786.00,VWS V14.01,2013-07-28 15:35:00,
2013-07-28 10:41:00,65.3,51.1,30.00,SSW,207,2.0,6.0,60,0.00,,CLR,0.00,800.00,VWS V14.01,2013-07-28 15:41:00,
2013-07-28 10:46:00,65.8,51.1,30.00,WSW,254,8.0,13.0,59,0.00,,CLR,0.00,807.00,VWS V14.01,2013-07-28 15:46:00,
2013-07-28 10:51:00,65.5,50.8,30.00,SSW,213,4.0,8.0,59,0.00,,CLR,0.00,824.00,VWS V14.01,2013-07-28 15:51:00,
2013-07-28 10:56:00,66.1,51.8,30.00,West,262,9.0,13.0,60,0.00,,CLR,0.00,831.00,VWS V14.01,2013-07-28 15:56:00,
2013-07-28 11:02:00,66.1,51.4,30.00,WSW,249,7.0,11.0,59,0.00,,CLR,0.00,882.00,VWS V14.01,2013-07-28 16:02:00,
2013-07-28 11:07:00,65.5,50.3,30.00,West,277,9.0,12.0,58,0.00,,CLR,0.00,970.00,VWS V14.01,2013-07-28 16:07:00,
2013-07-28 11:12:00,65.0,49.9,30.00,SW,236,8.0,13.0,58,0.00,,CLR,0.00,884.00,VWS V14.01,2013-07-28 16:12:00,
2013-07-28 11:17:00,65.5,50.8,30.00,SSW,208,6.0,7.0,59,0.00,,CLR,0.00,884.00,VWS V14.01,2013-07-28 16:17:00,
2013-07-28 11:22:00,66.3,50.6,30.00,West,278,10.0,10.0,57,0.00,,CLR,0.00,886.00,VWS V14.01,2013-07-28 16:22:00,
2013-07-28 11:27:00,66.4,50.2,30.00,West,274,6.0,10.0,56,0.00,,CLR,0.00,914.00,VWS V14.01,2013-07-28 16:27:00,
2013-07-28 11:33:00,66.6,50.0,29.99,WSW,252,4.0,11.0,55,0.00,,CLR,0.00,905.00,VWS V14.01,2013-07-28 16:33:00,
2013-07-28 11:39:00,66.6,50.0,29.99,WSW,255,6.0,9.0,55,0.00,,CLR,0.00,914.00,VWS V14.01,2013-07-28 16:39:00,
2013-07-28 11:44:00,66.6,50.4,29.99,North,360,7.0,12.0,56,0.00,,CLR,0.00,998.00,VWS V14.01,2013-07-28 16:44:00,
2013-07-28 11:49:00,66.6,50.0,29.99,South,190,3.0,12.0,55,0.00,,CLR,0.00,949.00,VWS V14.01,2013-07-28 16:49:00,
2013-07-28 11:54:00,66.8,50.1,29.99,WNW,298,7.0,11.0,55,0.00,,CLR,0.00,1025.00,VWS V14.01,2013-07-28 16:54:00,
2013-07-28 11:59:00,66.8,50.6,29.99,West,268,6.0,14.0,56,0.00,,CLR,0.00,990.00,VWS V14.01,2013-07-28 16:59:00,
2013-07-28 12:04:00,67.3,50.1,29.99,WSW,255,5.0,12.0,54,0.00,,FEW035,0.00,953.00,VWS V14.01,2013-07-28 17:04:00,
2013-07-28 12:09:00,67.6,49.9,29.99,West,271,8.0,18.0,53,0.00,,FEW035,0.00,953.00,VWS V14.01,2013-07-28 17:09:00,
2013-07-28 12:14:00,67.6,48.8,30.00,West,260,2.0,12.0,51,0.00,,FEW035,0.00,963.00,VWS V14.01,2013-07-28 17:14:00,
2013-07-28 12:19:00,67.6,49.4,30.00,SW,225,8.0,11.0,52,0.00,,FEW035,0.00,1027.00,VWS V14.01,2013-07-28 17:19:00,
2013-07-28 12:24:00,67.6,49.4,30.00,WNW,293,7.0,11.0,52,0.00,,FEW035,0.00,1020.00,VWS V14.01,2013-07-28 17:24:00,
2013-07-28 12:29:00,67.9,50.2,30.00,WSW,256,9.0,10.0,53,0.00,,FEW035,0.00,1058.00,VWS V14.01,2013-07-28 17:29:00,
2013-07-28 12:34:00,68.1,50.3,30.00,WSW,238,9.0,10.0,53,0.00,,FEW035,0.00,1114.00,VWS V14.01,2013-07-28 17:34:00,
2013-07-28 12:39:00,68.4,49.6,30.00,West,268,13.0,15.0,51,0.00,,FEW035,0.00,1041.00,VWS V14.01,2013-07-28 17:39:00,
2013-07-28 12:44:00,68.3,49.0,30.00,WSW,254,12.0,12.0,50,0.00,,FEW035,0.00,1079.00,VWS V14.01,2013-07-28 17:44:00,
2013-07-28 12:49:00,68.8,49.4,30.00,West,275,8.0,15.0,50,0.00,,FEW035,0.00,1123.00,VWS V14.01,2013-07-28 17:49:00,
2013-07-28 12:55:00,69.1,49.7,30.00,WSW,248,9.0,14.0,50,0.00,,FEW035,0.00,1095.00,VWS V14.01,2013-07-28 17:55:00,
2013-07-28 13:00:00,68.9,49.5,30.00,WSW,250,12.0,14.0,50,0.00,,SCT050,0.00,371.00,VWS V14.01,2013-07-28 18:00:00,
2013-07-28 13:05:00,68.8,49.4,30.00,WNW,290,2.0,11.0,50,0.00,,SCT050,0.00,371.00,VWS V14.01,2013-07-28 18:05:00,
2013-07-28 13:10:00,68.8,48.9,30.00,West,280,14.0,14.0,49,0.00,,SCT050,0.00,457.00,VWS V14.01,2013-07-28 18:10:00,
2013-07-28 13:15:00,68.9,50.0,30.00,WSW,257,2.0,3.0,51,0.00,,SCT050,0.00,376.00,VWS V14.01,2013-07-28 18:15:00,
2013-07-28 13:21:00,69.8,50.3,30.00,WSW,250,7.0,9.0,50,0.00,,SCT050,0.00,355.00,VWS V14.01,2013-07-28 18:21:00,
2013-07-28 13:27:00,70.1,49.5,30.00,WSW,243,6.0,10.0,48,0.00,,SCT050,0.00,1192.00,VWS V14.01,2013-07-28 18:27:00,
2013-07-28 13:32:00,69.6,49.6,30.00,SW,215,4.0,10.0,49,0.00,,SCT050,0.00,294.00,VWS V14.01,2013-07-28 18:32:00,
2013-07-28 13:38:00,68.9,49.5,30.00,West,265,11.0,11.0,50,0.00,,SCT050,0.00,1174.00,VWS V14.01,2013-07-28 18:38:00,
2013-07-28 13:43:00,68.6,49.2,30.00,WNW,289,8.0,9.0,50,0.00,,SCT050,0.00,272.00,VWS V14.01,2013-07-28 18:43:00,
2013-07-28 13:48:00,68.3,49.0,30.00,WSW,248,13.0,13.0,50,0.00,,SCT050,0.00,295.00,VWS V14.01,2013-07-28 18:48:00,
2013-07-28 13:53:00,68.1,49.8,30.00,WSW,253,10.0,11.0,52,0.00,,SCT050,0.00,360.00,VWS V14.01,2013-07-28 18:53:00,
2013-07-28 13:59:00,68.8,49.4,30.00,WNW,283,1.0,12.0,50,0.00,,SCT050,0.00,415.00,VWS V14.01,2013-07-28 18:59:00,
2013-07-28 14:04:00,69.4,49.4,30.00,West,281,7.0,10.0,49,0.00,,SCT041,0.00,285.00,VWS V14.01,2013-07-28 19:04:00,
2013-07-28 14:09:00,70.3,49.7,30.00,West,270,10.0,10.0,48,0.00,,SCT041,0.00,1218.00,VWS V14.01,2013-07-28 19:09:00,
2013-07-28 14:14:00,70.9,49.1,30.00,West,263,9.0,15.0,46,0.00,,SCT041,0.00,1188.00,VWS V14.01,2013-07-28 19:14:00,
2013-07-28 14:20:00,70.8,49.6,30.00,West,269,5.0,7.0,47,0.00,,SCT041,0.00,1179.00,VWS V14.01,2013-07-28 19:20:00,
2013-07-28 14:26:00,70.1,48.4,30.00,West,263,6.0,13.0,46,0.00,,SCT041,0.00,309.00,VWS V14.01,2013-07-28 19:26:00,
2013-07-28 14:31:00,69.8,49.2,30.00,SSW,212,5.0,17.0,48,0.00,,SCT041,0.00,288.00,VWS V14.01,2013-07-28 19:31:00,
2013-07-28 14:37:00,69.8,49.2,30.00,WNW,296,6.0,11.0,48,0.00,,SCT041,0.00,1099.00,VWS V14.01,2013-07-28 19:37:00,
2013-07-28 14:42:00,69.6,49.1,30.00,West,259,12.0,14.0,48,0.00,,SCT041,0.00,292.00,VWS V14.01,2013-07-28 19:42:00,
2013-07-28 14:47:00,69.9,48.8,30.00,WNW,289,4.0,12.0,47,0.00,,SCT041,0.00,1176.00,VWS V14.01,2013-07-28 19:47:00,
2013-07-28 14:52:00,69.8,49.8,30.00,WSW,252,1.0,13.0,49,0.00,,SCT041,0.00,1007.00,VWS V14.01,2013-07-28 19:52:00,
2013-07-28 14:57:00,70.3,49.1,30.00,West,265,11.0,11.0,47,0.00,,SCT041,0.00,1116.00,VWS V14.01,2013-07-28 19:57:00,
2013-07-28 15:02:00,70.4,50.3,30.00,SSW,206,3.0,10.0,49,0.00,,BKN055,0.00,364.00,VWS V14.01,2013-07-28 20:02:00,
2013-07-28 15:08:00,70.6,50.0,30.00,NW,306,0.0,10.0,48,0.00,,BKN055,0.00,1018.00,VWS V14.01,2013-07-28 20:08:00,
2013-07-28 15:13:00,71.1,49.9,30.00,WNW,291,2.0,8.0,47,0.00,,BKN055,0.00,267.00,VWS V14.01,2013-07-28 20:13:00,
2013-07-28 15:18:00,70.8,50.7,30.00,ENE,63,3.0,6.0,49,0.00,,BKN055,0.00,376.00,VWS V14.01,2013-07-28 20:18:00,
2013-07-28 15:23:00,70.6,51.1,30.00,WSW,256,2.0,10.0,50,0.00,,BKN055,0.00,970.00,VWS V14.01,2013-07-28 20:23:00,
2013-07-28 15:29:00,70.3,49.7,30.00,WSW,256,4.0,10.0,48,0.00,,BKN055,0.00,220.00,VWS V14.01,2013-07-28 20:29:00,
2013-07-28 15:34:00,69.4,50.0,30.00,West,274,3.0,7.0,50,0.00,,BKN055,0.00,271.00,VWS V14.01,2013-07-28 20:34:00,
2013-07-28 15:40:00,69.8,50.3,30.00,West,269,7.0,10.0,50,0.00,,BKN055,0.00,278.00,VWS V14.01,2013-07-28 20:40:00,
2013-07-28 15:45:00,69.9,50.4,30.00,WNW,294,3.0,11.0,50,0.00,,BKN055,0.00,366.00,VWS V14.01,2013-07-28 20:45:00,
2013-07-28 15:50:00,70.1,50.1,30.01,WSW,243,3.0,7.0,49,0.00,,BKN055,0.00,313.00,VWS V14.01,2013-07-28 20:50:00,
2013-07-28 15:56:00,70.4,49.8,30.01,WNW,301,2.0,6.0,48,0.00,,BKN055,0.00,870.00,VWS V14.01,2013-07-28 20:56:00,
2013-07-28 16:02:00,70.9,50.8,30.01,WNW,282,7.0,11.0,49,0.00,,BKN055,0.00,970.00,VWS V14.01,2013-07-28 21:02:00,
2013-07-28 16:08:00,70.8,50.2,30.00,WNW,283,3.0,9.0,48,0.00,,BKN055,0.00,448.00,VWS V14.01,2013-07-28 21:08:00,
2013-07-28 16:13:00,70.9,50.2,30.00,West,271,4.0,7.0,48,0.00,,BKN055,0.00,898.00,VWS V14.01,2013-07-28 21:13:00,
2013-07-28 16:18:00,70.9,50.2,30.00,WNW,283,6.0,9.0,48,0.00,,BKN055,0.00,327.00,VWS V14.01,2013-07-28 21:18:00,
2013-07-28 16:24:00,70.8,50.2,30.00,WSW,250,8.0,15.0,48,0.00,,BKN055,0.00,336.00,VWS V14.01,2013-07-28 21:24:00,
2013-07-28 16:30:00,70.8,50.7,30.00,WNW,290,7.0,13.0,49,0.00,,BKN055,0.00,814.00,VWS V14.01,2013-07-28 21:30:00,
2013-07-28 16:35:00,70.8,50.7,30.00,SSW,213,2.0,5.0,49,0.00,,BKN055,0.00,849.00,VWS V14.01,2013-07-28 21:35:00,
2013-07-28 16:41:00,71.3,50.6,30.00,SW,225,8.0,10.0,48,0.00,,BKN055,0.00,272.00,VWS V14.01,2013-07-28 21:41:00,
2013-07-28 16:46:00,71.3,50.6,30.00,West,264,10.0,12.0,48,0.00,,BKN055,0.00,283.00,VWS V14.01,2013-07-28 21:46:00,
2013-07-28 16:52:00,71.6,51.5,30.01,WNW,299,4.0,9.0,49,0.00,,BKN055,0.00,773.00,VWS V14.01,2013-07-28 21:52:00,
2013-07-28 16:57:00,71.5,50.2,30.01,WSW,256,9.0,14.0,47,0.00,,BKN055,0.00,246.00,VWS V14.01,2013-07-28 21:57:00,
2013-07-28 17:03:00,71.3,51.2,30.00,WSW,257,4.0,7.0,49,0.00,,BKN055,0.00,724.00,VWS V14.01,2013-07-28 22:03:00,
2013-07-28 17:08:00,71.6,50.9,30.01,WSW,255,3.0,11.0,48,0.00,,BKN055,0.00,169.00,VWS V14.01,2013-07-28 22:08:00,
2013-07-28 17:13:00,71.3,51.2,30.01,NNE,28,1.0,7.0,49,0.00,,BKN055,0.00,700.00,VWS V14.01,2013-07-28 22:13:00,
2013-07-28 17:18:00,71.6,51.5,30.01,North,350,1.0,5.0,49,0.00,,BKN055,0.00,686.00,VWS V14.01,2013-07-28 22:18:00,
2013-07-28 17:23:00,71.8,51.1,30.01,West,267,1.0,7.0,48,0.00,,BKN055,0.00,580.00,VWS V14.01,2013-07-28 22:23:00,
2013-07-28 17:29:00,71.8,51.1,30.01,South,177,4.0,4.0,48,0.00,,BKN055,0.00,563.00,VWS V14.01,2013-07-28 22:29:00,
2013-07-28 17:35:00,71.6,50.9,30.01,WSW,248,8.0,9.0,48,0.00,,BKN055,0.00,148.00,VWS V14.01,2013-07-28 22:35:00,
2013-07-28 17:40:00,70.6,50.5,30.01,WSW,256,2.0,5.0,49,0.00,,BKN055,0.00,190.00,VWS V14.01,2013-07-28 22:40:00,
2013-07-28 17:46:00,70.4,50.9,30.01,West,276,0.0,7.0,50,0.00,,BKN055,0.00,113.00,VWS V14.01,2013-07-28 22:46:00,
2013-07-28 17:52:00,70.1,50.6,30.02,WSW,257,7.0,7.0,50,0.00,,BKN055,0.00,144.00,VWS V14.01,2013-07-28 22:52:00,
2013-07-28 17:58:00,70.3,50.8,30.02,WNW,293,2.0,8.0,50,0.00,,BKN055,0.00,178.00,VWS V14.01,2013-07-28 22:58:00,
2013-07-28 18:03:00,70.3,50.8,30.02,WNW,295,4.0,7.0,50,0.00,,BKN,0.00,155.00,VWS V14.01,2013-07-28 23:03:00,
2013-07-28 18:09:00,70.3,51.3,30.02,WNW,296,2.0,6.0,51,0.00,,BKN,0.00,160.00,VWS V14.01,2013-07-28 23:09:00,
2013-07-28 18:14:00,70.3,51.3,30.02,WSW,254,3.0,4.0,51,0.00,,BKN,0.00,431.00,VWS V14.01,2013-07-28 23:14:00,
2013-07-28 18:20:00,70.6,51.6,30.02,WNW,287,4.0,5.0,51,0.00,,BKN,0.00,90.00,VWS V14.01,2013-07-28 23:20:00,
2013-07-28 18:26:00,70.1,51.2,30.02,NW,309,0.0,5.0,51,0.00,,BKN,0.00,139.00,VWS V14.01,2013-07-28 23:26:00,
2013-07-28 18:32:00,69.6,51.2,30.02,WNW,292,2.0,3.0,52,0.00,,BKN,0.00,114.00,VWS V14.01,2013-07-28 23:32:00,
2013-07-28 18:38:00,69.4,51.5,30.03,WNW,284,0.0,0.0,53,0.00,,BKN,0.00,97.00,VWS V14.01,2013-07-28 23:38:00,
2013-07-28 18:44:00,69.4,51.5,30.03,West,271,4.0,5.0,53,0.00,,BKN,0.00,84.00,VWS V14.01,2013-07-28 23:44:00,
2013-07-28 18:49:00,69.3,51.5,30.03,WNW,291,0.0,4.0,53,0.00,,BKN,0.00,77.00,VWS V14.01,2013-07-28 23:49:00,
2013-07-28 18:55:00,69.3,51.5,30.03,WNW,288,1.0,6.0,53,0.00,,BKN,0.00,72.00,VWS V14.01,2013-07-28 23:55:00,
2013-07-28 19:01:00,69.3,52.0,30.03,WNW,287,1.0,4.0,54,0.00,,FEW060,0.00,104.00,VWS V14.01,2013-07-29 00:01:00,
2013-07-28 19:07:00,69.3,52.0,30.03,NW,316,2.0,2.0,54,0.00,,FEW060,0.00,120.00,VWS V14.01,2013-07-29 00:07:00,
2013-07-28 19:12:00,69.3,52.0,30.03,NW,320,4.0,4.0,54,0.00,,FEW060,0.00,83.00,VWS V14.01,2013-07-29 00:12:00,
2013-07-28 19:17:00,69.3,52.0,30.03,West,260,0.0,3.0,54,0.00,,FEW060,0.00,62.00,VWS V14.01,2013-07-29 00:17:00,
2013-07-28 19:22:00,69.1,51.8,30.03,NW,309,1.0,3.0,54,0.00,,FEW060,0.00,49.00,VWS V14.01,2013-07-29 00:22:00,
2013-07-28 19:28:00,68.9,51.6,30.03,NW,309,0.0,1.0,54,0.00,,FEW060,0.00,54.00,VWS V14.01,2013-07-29 00:28:00,
2013-07-28 19:33:00,68.8,51.5,30.03,NW,309,0.0,4.0,54,0.00,,FEW060,0.00,44.00,VWS V14.01,2013-07-29 00:33:00,
2013-07-28 19:38:00,68.6,51.8,30.04,NW,309,0.0,0.0,55,0.00,,FEW060,0.00,37.00,VWS V14.01,2013-07-29 00:38:00,
2013-07-28 19:44:00,68.4,51.6,30.04,NW,309,1.0,3.0,55,0.00,,FEW060,0.00,40.00,VWS V14.01,2013-07-29 00:44:00,
2013-07-28 19:50:00,68.3,51.5,30.04,NW,309,0.0,1.0,55,0.00,,FEW060,0.00,33.00,VWS V14.01,2013-07-29 00:50:00,
2013-07-28 19:55:00,68.1,51.8,30.04,NW,309,0.0,1.0,56,0.00,,FEW060,0.00,21.00,VWS V14.01,2013-07-29 00:55:00,
2013-07-28 20:02:00,67.9,51.6,30.04,NW,309,0.0,0.0,56,0.00,,BKN060,0.00,14.00,VWS V14.01,2013-07-29 01:02:00,
2013-07-28 20:07:00,67.6,51.8,30.04,NW,309,0.0,1.0,57,0.00,,BKN060,0.00,11.00,VWS V14.01,2013-07-29 01:07:00,
2013-07-28 20:12:00,67.3,52.0,30.04,NW,309,0.0,0.0,58,0.00,,BKN060,0.00,5.00,VWS V14.01,2013-07-29 01:12:00,
2013-07-28 20:17:00,67.1,51.8,30.04,NW,309,0.0,0.0,58,0.00,,BKN060,0.00,0.00,VWS V14.01,2013-07-29 01:17:00,
2013-07-28 20:22:00,66.8,52.0,30.04,NW,309,0.0,0.0,59,0.00,,BKN060,0.00,0.00,VWS V14.01,2013-07-29 01:22:00,
2013-07-28 20:29:00,66.3,51.6,30.04,NW,309,0.0,0.0,59,0.00,,BKN060,0.00,0.00,VWS V14.01,2013-07-29 01:29:00,
2013-07-28 20:34:00,66.0,51.7,30.04,NW,309,0.0,0.0,60,0.00,,BKN060,0.00,0.00,VWS V14.01,2013-07-29 01:34:00,
2013-07-28 20:39:00,65.6,51.8,30.04,NW,309,0.0,0.0,61,0.00,,BKN060,0.00,0.00,VWS V14.01,2013-07-29 01:39:00,
2013-07-28 20:44:00,65.3,51.5,30.04,NW,309,0.0,0.0,61,0.00,,BKN060,0.00,0.00,VWS V14.01,2013-07-29 01:44:00,
2013-07-28 20:50:00,65.0,51.7,30.04,NW,309,0.0,0.0,62,0.00,,BKN060,0.00,0.00,VWS V14.01,2013-07-29 01:50:00,
2013-07-28 20:57:00,64.5,51.6,30.05,NW,309,0.0,0.0,63,0.00,,BKN060,0.00,0.00,VWS V14.01,2013-07-29 01:57:00,
2013-07-28 21:02:00,64.2,51.4,30.05,NW,309,0.0,0.0,63,0.00,,BKN060,0.00,0.00,VWS V14.01,2013-07-29 02:02:00,
2013-07-28 21:07:00,64.0,51.2,30.05,NW,309,0.0,0.0,63,0.00,,BKN060,0.00,0.00,VWS V14.01,2013-07-29 02:07:00,
2013-07-28 21:12:00,63.7,51.3,30.05,NW,309,0.0,0.0,64,0.00,,BKN060,0.00,0.00,VWS V14.01,2013-07-29 02:12:00,
2013-07-28 21:17:00,63.5,51.5,30.05,NW,309,0.0,0.0,65,0.00,,BKN060,0.00,0.00,VWS V14.01,2013-07-29 02:17:00,
2013-07-28 21:23:00,63.2,51.2,30.06,NW,309,0.0,0.0,65,0.00,,BKN060,0.00,0.00,VWS V14.01,2013-07-29 02:23:00,
2013-07-28 21:28:00,63.1,51.6,30.06,NW,309,0.0,0.0,66,0.00,,BKN060,0.00,0.00,VWS V14.01,2013-07-29 02:28:00,
2013-07-28 21:34:00,62.7,51.6,30.06,NW,309,0.0,0.0,67,0.00,,BKN060,0.00,0.00,VWS V14.01,2013-07-29 02:34:00,
2013-07-28 21:39:00,62.6,51.5,30.06,NW,309,0.0,0.0,67,0.00,,BKN060,0.00,0.00,VWS V14.01,2013-07-29 02:39:00,
2013-07-28 21:45:00,62.3,51.6,30.06,NW,309,0.0,0.0,68,0.00,,BKN060,0.00,0.00,VWS V14.01,2013-07-29 02:45:00,
2013-07-28 21:51:00,62.1,51.8,30.07,NW,309,0.0,0.0,69,0.00,,BKN060,0.00,0.00,VWS V14.01,2013-07-29 02:51:00,
2013-07-28 21:57:00,61.8,51.9,30.07,NW,309,0.0,0.0,70,0.00,,BKN060,0.00,0.00,VWS V14.01,2013-07-29 02:57:00,
2013-07-28 22:02:00,61.5,52.0,30.07,NW,309,0.0,0.0,71,0.00,,FEW055,0.00,0.00,VWS V14.01,2013-07-29 03:02:00,
2013-07-28 22:08:00,61.3,52.2,30.07,NW,309,0.0,0.0,72,0.00,,FEW055,0.00,0.00,VWS V14.01,2013-07-29 03:08:00,
2013-07-28 22:13:00,61.3,52.2,30.07,NW,309,0.0,0.0,72,0.00,,FEW055,0.00,0.00,VWS V14.01,2013-07-29 03:13:00,
2013-07-28 22:18:00,60.9,52.2,30.07,NW,309,0.0,0.0,73,0.00,,FEW055,0.00,0.00,VWS V14.01,2013-07-29 03:18:00,
2013-07-28 22:24:00,60.5,51.8,30.07,NW,309,0.0,0.0,73,0.00,,FEW055,0.00,0.00,VWS V14.01,2013-07-29 03:24:00,
2013-07-28 22:29:00,60.4,52.1,30.07,NW,309,0.0,0.0,74,0.00,,FEW055,0.00,0.00,VWS V14.01,2013-07-29 03:29:00,
2013-07-28 22:34:00,60.1,52.2,30.07,NW,309,0.0,0.0,75,0.00,,FEW055,0.00,0.00,VWS V14.01,2013-07-29 03:34:00,
2013-07-28 22:40:00,59.9,52.3,30.07,NW,309,0.0,0.0,76,0.00,,FEW055,0.00,0.00,VWS V14.01,2013-07-29 03:40:00,
2013-07-28 22:45:00,59.8,52.2,30.07,NW,309,0.0,0.0,76,0.00,,FEW055,0.00,0.00,VWS V14.01,2013-07-29 03:45:00,
2013-07-28 22:50:00,59.5,52.3,30.07,NW,309,0.0,0.0,77,0.00,,FEW055,0.00,0.00,VWS V14.01,2013-07-29 03:50:00,
2013-07-28 22:56:00,59.3,52.5,30.07,NW,309,0.0,0.0,78,0.00,,FEW055,0.00,0.00,VWS V14.01,2013-07-29 03:56:00,
2013-07-28 23:01:00,59.2,52.3,30.07,NW,309,0.0,0.0,78,0.00,,CLR,0.00,0.00,VWS V14.01,2013-07-29 04:01:00,
2013-07-28 23:02:00,59.2,52.7,30.07,NW,309,0.0,0.0,79,0.00,,CLR,0.00,0.00,VWS V14.01,2013-07-29 04:02:00,
2013-07-28 23:04:00,59.2,52.7,30.07,NW,309,0.0,0.0,79,0.00,,CLR,0.00,0.00,VWS V14.01,2013-07-29 04:04:00,
2013-07-28 23:06:00,59.2,52.7,30.07,NW,309,0.0,0.0,79,0.00,,CLR,0.00,0.00,VWS V14.01,2013-07-29 04:06:00,
2013-07-28 23:11:00,59.0,52.5,30.07,NW,309,1.0,2.0,79,0.00,,CLR,0.00,0.00,VWS V14.01,2013-07-29 04:11:00,
2013-07-28 23:14:00,58.9,52.8,30.07,NW,309,0.0,0.0,80,0.00,,CLR,0.00,0.00,VWS V14.01,2013-07-29 04:14:00,
2013-07-28 23:20:00,58.7,52.9,30.07,NW,309,0.0,0.0,81,0.00,,CLR,0.00,0.00,VWS V14.01,2013-07-29 04:20:00,
2013-07-28 23:26:00,58.4,52.6,30.07,NW,309,0.0,0.0,81,0.00,,CLR,0.00,0.00,VWS V14.01,2013-07-29 04:26:00,
2013-07-28 23:31:00,58.3,52.5,30.07,NW,309,0.0,0.0,81,0.00,,CLR,0.00,0.00,VWS V14.01,2013-07-29 04:31:00,
2013-07-28 23:36:00,58.3,52.8,30.07,NW,309,0.0,0.0,82,0.00,,CLR,0.00,0.00,VWS V14.01,2013-07-29 04:36:00,
2013-07-28 23:41:00,58.1,52.6,30.07,NW,309,0.0,0.0,82,0.00,,CLR,0.00,0.00,VWS V14.01,2013-07-29 04:41:00,
2013-07-28 23:46:00,58.0,52.5,30.07,NW,309,0.0,0.0,82,0.00,,CLR,0.00,0.00,VWS V14.01,2013-07-29 04:46:00,
2013-07-28 23:51:00,58.0,52.5,30.07,NW,309,0.0,0.0,82,0.00,,CLR,0.00,0.00,VWS V14.01,2013-07-29 04:51:00,
2013-07-28 23:56:00,57.8,52.7,30.07,NW,309,0.0,0.0,83,0.00,,CLR,0.00,0.00,VWS V14.01,2013-07-29 04:56:00,